sensor_id;sensor_type;location;lat;lon;timestamp;P1;durP1;ratioP1;P2;durP2;ratioP2
82630;SDS011;72301;52.376;9.738;2024-02-26T00:02:17;2.80;;;0.80;;
82630;SDS011;72301;52.376;9.738;2024-02-26T00:04:45;2.15;;;0.70;;
82630;SDS011;72301;52.376;9.738;2024-02-26T00:07:11;2.97;;;0.93;;
82630;SDS011;72301;52.376;9.738;2024-02-26T00:09:37;4.38;;;0.90;;
82630;SDS011;72301;52.376;9.738;2024-02-26T00:12:02;1.88;;;0.75;;
82630;SDS011;72301;52.376;9.738;2024-02-26T00:14:32;2.28;;;0.90;;
82630;SDS011;72301;52.376;9.738;2024-02-26T00:16:57;2.95;;;0.73;;
82630;SDS011;72301;52.376;9.738;2024-02-26T00:19:23;2.13;;;0.77;;
82630;SDS011;72301;52.376;9.738;2024-02-26T00:21:49;2.80;;;0.80;;
82630;SDS011;72301;52.376;9.738;2024-02-26T00:24:15;3.53;;;1.00;;
82630;SDS011;72301;52.376;9.738;2024-02-26T00:27:00;1.92;;;0.80;;
82630;SDS011;72301;52.376;9.738;2024-02-26T00:29:26;2.75;;;0.80;;
82630;SDS011;72301;52.376;9.738;2024-02-26T00:34:41;2.55;;;0.73;;
82630;SDS011;72301;52.376;9.738;2024-02-26T00:37:07;3.13;;;0.77;;
82630;SDS011;72301;52.376;9.738;2024-02-26T00:39:33;2.53;;;0.90;;
82630;SDS011;72301;52.376;9.738;2024-02-26T00:41:58;2.42;;;0.80;;
82630;SDS011;72301;52.376;9.738;2024-02-26T00:44:24;2.80;;;0.90;;
82630;SDS011;72301;52.376;9.738;2024-02-26T00:46:53;3.00;;;0.80;;
82630;SDS011;72301;52.376;9.738;2024-02-26T00:49:18;2.42;;;0.80;;
82630;SDS011;72301;52.376;9.738;2024-02-26T00:51:54;2.28;;;0.90;;
82630;SDS011;72301;52.376;9.738;2024-02-26T00:54:21;2.28;;;0.80;;
82630;SDS011;72301;52.376;9.738;2024-02-26T00:56:49;3.10;;;0.80;;
82630;SDS011;72301;52.376;9.738;2024-02-26T00:59:15;1.75;;;0.75;;
82630;SDS011;72301;52.376;9.738;2024-02-26T01:01:40;3.00;;;0.70;;
82630;SDS011;72301;52.376;9.738;2024-02-26T01:04:08;2.80;;;0.90;;
82630;SDS011;72301;52.376;9.738;2024-02-26T01:06:34;2.40;;;0.80;;
82630;SDS011;72301;52.376;9.738;2024-02-26T01:09:02;3.38;;;1.08;;
82630;SDS011;72301;52.376;9.738;2024-02-26T01:11:28;3.30;;;0.90;;
82630;SDS011;72301;52.376;9.738;2024-02-26T01:13:54;2.35;;;0.90;;
82630;SDS011;72301;52.376;9.738;2024-02-26T01:16:22;2.22;;;0.90;;
82630;SDS011;72301;52.376;9.738;2024-02-26T01:18:50;3.60;;;1.13;;
82630;SDS011;72301;52.376;9.738;2024-02-26T01:21:38;2.33;;;0.90;;
82630;SDS011;72301;52.376;9.738;2024-02-26T01:24:13;3.35;;;0.90;;
82630;SDS011;72301;52.376;9.738;2024-02-26T01:26:44;2.65;;;0.93;;
82630;SDS011;72301;52.376;9.738;2024-02-26T01:29:10;3.05;;;0.90;;
82630;SDS011;72301;52.376;9.738;2024-02-26T01:31:44;2.53;;;0.88;;
82630;SDS011;72301;52.376;9.738;2024-02-26T01:34:12;2.38;;;0.80;;
82630;SDS011;72301;52.376;9.738;2024-02-26T01:36:38;3.65;;;1.00;;
82630;SDS011;72301;52.376;9.738;2024-02-26T01:39:04;4.05;;;1.10;;
82630;SDS011;72301;52.376;9.738;2024-02-26T01:41:29;3.45;;;1.00;;
82630;SDS011;72301;52.376;9.738;2024-02-26T01:43:55;2.17;;;0.80;;
82630;SDS011;72301;52.376;9.738;2024-02-26T01:46:24;3.08;;;1.02;;
82630;SDS011;72301;52.376;9.738;2024-02-26T01:48:53;3.28;;;1.10;;
82630;SDS011;72301;52.376;9.738;2024-02-26T01:51:22;1.80;;;0.70;;
82630;SDS011;72301;52.376;9.738;2024-02-26T01:53:48;3.40;;;1.13;;
82630;SDS011;72301;52.376;9.738;2024-02-26T01:56:16;2.50;;;0.90;;
82630;SDS011;72301;52.376;9.738;2024-02-26T01:58:43;2.70;;;0.82;;
82630;SDS011;72301;52.376;9.738;2024-02-26T02:01:09;1.88;;;0.80;;
82630;SDS011;72301;52.376;9.738;2024-02-26T02:03:35;3.70;;;1.00;;
82630;SDS011;72301;52.376;9.738;2024-02-26T02:06:21;3.17;;;1.05;;
82630;SDS011;72301;52.376;9.738;2024-02-26T02:08:50;3.67;;;0.90;;
82630;SDS011;72301;52.376;9.738;2024-02-26T02:11:19;2.70;;;1.10;;
82630;SDS011;72301;52.376;9.738;2024-02-26T02:13:47;3.58;;;0.93;;
82630;SDS011;72301;52.376;9.738;2024-02-26T02:16:13;3.45;;;0.93;;
82630;SDS011;72301;52.376;9.738;2024-02-26T02:18:39;3.78;;;1.17;;
82630;SDS011;72301;52.376;9.738;2024-02-26T02:21:05;2.58;;;0.80;;
82630;SDS011;72301;52.376;9.738;2024-02-26T02:23:30;4.00;;;0.90;;
82630;SDS011;72301;52.376;9.738;2024-02-26T02:25:59;3.45;;;0.90;;
82630;SDS011;72301;52.376;9.738;2024-02-26T02:28:27;3.05;;;0.90;;
82630;SDS011;72301;52.376;9.738;2024-02-26T02:30:53;2.53;;;1.00;;
82630;SDS011;72301;52.376;9.738;2024-02-26T02:33:22;2.58;;;0.93;;
82630;SDS011;72301;52.376;9.738;2024-02-26T02:35:50;2.97;;;0.80;;
82630;SDS011;72301;52.376;9.738;2024-02-26T02:38:16;2.45;;;0.90;;
82630;SDS011;72301;52.376;9.738;2024-02-26T02:40:44;2.63;;;0.80;;
82630;SDS011;72301;52.376;9.738;2024-02-26T02:43:12;2.90;;;0.88;;
82630;SDS011;72301;52.376;9.738;2024-02-26T02:45:38;3.70;;;0.98;;
82630;SDS011;72301;52.376;9.738;2024-02-26T02:48:12;2.58;;;0.80;;
82630;SDS011;72301;52.376;9.738;2024-02-26T02:50:38;3.45;;;1.00;;
82630;SDS011;72301;52.376;9.738;2024-02-26T02:53:04;2.47;;;0.75;;
82630;SDS011;72301;52.376;9.738;2024-02-26T02:55:33;2.88;;;0.90;;
82630;SDS011;72301;52.376;9.738;2024-02-26T02:57:58;2.78;;;1.00;;
82630;SDS011;72301;52.376;9.738;2024-02-26T03:00:30;2.15;;;0.70;;
82630;SDS011;72301;52.376;9.738;2024-02-26T03:02:56;2.55;;;0.90;;
82630;SDS011;72301;52.376;9.738;2024-02-26T03:05:24;2.67;;;0.73;;
82630;SDS011;72301;52.376;9.738;2024-02-26T03:07:55;1.88;;;0.70;;
82630;SDS011;72301;52.376;9.738;2024-02-26T03:10:21;3.83;;;0.95;;
82630;SDS011;72301;52.376;9.738;2024-02-26T03:12:49;1.80;;;0.70;;
82630;SDS011;72301;52.376;9.738;2024-02-26T03:15:15;3.42;;;1.00;;
82630;SDS011;72301;52.376;9.738;2024-02-26T03:17:43;4.03;;;0.93;;
82630;SDS011;72301;52.376;9.738;2024-02-26T03:20:12;3.58;;;1.05;;
82630;SDS011;72301;52.376;9.738;2024-02-26T03:22:38;3.50;;;0.80;;
82630;SDS011;72301;52.376;9.738;2024-02-26T03:25:06;3.15;;;0.90;;
82630;SDS011;72301;52.376;9.738;2024-02-26T03:27:32;1.98;;;0.70;;
82630;SDS011;72301;52.376;9.738;2024-02-26T03:30:01;2.30;;;0.88;;
82630;SDS011;72301;52.376;9.738;2024-02-26T03:32:48;3.40;;;1.00;;
82630;SDS011;72301;52.376;9.738;2024-02-26T03:35:14;3.15;;;0.95;;
82630;SDS011;72301;52.376;9.738;2024-02-26T03:37:39;3.58;;;1.00;;
82630;SDS011;72301;52.376;9.738;2024-02-26T03:40:08;2.90;;;1.00;;
82630;SDS011;72301;52.376;9.738;2024-02-26T03:42:34;2.95;;;1.00;;
82630;SDS011;72301;52.376;9.738;2024-02-26T03:45:00;3.60;;;1.00;;
82630;SDS011;72301;52.376;9.738;2024-02-26T03:47:35;4.18;;;1.02;;
82630;SDS011;72301;52.376;9.738;2024-02-26T03:50:00;3.78;;;1.00;;
82630;SDS011;72301;52.376;9.738;2024-02-26T03:52:29;2.55;;;0.80;;
82630;SDS011;72301;52.376;9.738;2024-02-26T03:54:55;2.85;;;0.85;;
82630;SDS011;72301;52.376;9.738;2024-02-26T03:57:21;3.47;;;0.85;;
82630;SDS011;72301;52.376;9.738;2024-02-26T03:59:47;1.85;;;0.80;;
82630;SDS011;72301;52.376;9.738;2024-02-26T04:02:12;2.20;;;0.80;;
82630;SDS011;72301;52.376;9.738;2024-02-26T04:04:40;2.47;;;0.85;;
82630;SDS011;72301;52.376;9.738;2024-02-26T04:07:06;3.38;;;1.00;;
82630;SDS011;72301;52.376;9.738;2024-02-26T04:09:32;3.50;;;1.02;;
82630;SDS011;72301;52.376;9.738;2024-02-26T04:12:01;3.50;;;1.08;;
82630;SDS011;72301;52.376;9.738;2024-02-26T04:14:26;1.80;;;0.77;;
82630;SDS011;72301;52.376;9.738;2024-02-26T04:17:02;2.78;;;0.98;;
82630;SDS011;72301;52.376;9.738;2024-02-26T04:19:30;2.55;;;0.90;;
82630;SDS011;72301;52.376;9.738;2024-02-26T04:21:56;4.13;;;0.88;;
82630;SDS011;72301;52.376;9.738;2024-02-26T04:24:22;2.83;;;0.88;;
82630;SDS011;72301;52.376;9.738;2024-02-26T04:26:47;2.85;;;0.90;;
82630;SDS011;72301;52.376;9.738;2024-02-26T04:29:14;2.72;;;0.93;;
82630;SDS011;72301;52.376;9.738;2024-02-26T04:31:40;2.03;;;0.82;;
82630;SDS011;72301;52.376;9.738;2024-02-26T04:34:07;3.67;;;0.90;;
82630;SDS011;72301;52.376;9.738;2024-02-26T04:36:33;2.78;;;1.00;;
82630;SDS011;72301;52.376;9.738;2024-02-26T04:39:01;2.97;;;1.00;;
82630;SDS011;72301;52.376;9.738;2024-02-26T04:41:27;2.38;;;0.70;;
82630;SDS011;72301;52.376;9.738;2024-02-26T04:43:56;2.17;;;0.90;;
82630;SDS011;72301;52.376;9.738;2024-02-26T04:46:22;2.83;;;0.95;;
82630;SDS011;72301;52.376;9.738;2024-02-26T04:48:47;2.13;;;0.80;;
82630;SDS011;72301;52.376;9.738;2024-02-26T04:51:13;2.75;;;0.82;;
82630;SDS011;72301;52.376;9.738;2024-02-26T04:53:39;3.35;;;0.90;;
82630;SDS011;72301;52.376;9.738;2024-02-26T04:56:04;2.45;;;1.10;;
82630;SDS011;72301;52.376;9.738;2024-02-26T04:58:30;2.85;;;1.00;;
82630;SDS011;72301;52.376;9.738;2024-02-26T05:00:59;3.00;;;0.98;;
82630;SDS011;72301;52.376;9.738;2024-02-26T05:03:24;2.92;;;1.08;;
82630;SDS011;72301;52.376;9.738;2024-02-26T05:05:50;4.35;;;1.00;;
82630;SDS011;72301;52.376;9.738;2024-02-26T05:08:15;3.53;;;1.10;;
82630;SDS011;72301;52.376;9.738;2024-02-26T05:10:41;2.58;;;0.80;;
82630;SDS011;72301;52.376;9.738;2024-02-26T05:13:15;3.40;;;0.90;;
82630;SDS011;72301;52.376;9.738;2024-02-26T05:15:43;3.55;;;1.00;;
82630;SDS011;72301;52.376;9.738;2024-02-26T05:18:08;3.00;;;1.00;;
82630;SDS011;72301;52.376;9.738;2024-02-26T05:20:55;2.38;;;0.90;;
82630;SDS011;72301;52.376;9.738;2024-02-26T05:23:20;2.53;;;0.80;;
82630;SDS011;72301;52.376;9.738;2024-02-26T05:25:49;3.88;;;1.05;;
82630;SDS011;72301;52.376;9.738;2024-02-26T05:28:52;3.13;;;0.95;;
82630;SDS011;72301;52.376;9.738;2024-02-26T05:31:17;2.40;;;0.70;;
82630;SDS011;72301;52.376;9.738;2024-02-26T05:33:43;3.67;;;1.33;;
82630;SDS011;72301;52.376;9.738;2024-02-26T05:36:17;2.72;;;0.90;;
82630;SDS011;72301;52.376;9.738;2024-02-26T05:38:44;3.28;;;1.08;;
82630;SDS011;72301;52.376;9.738;2024-02-26T05:41:16;3.13;;;0.90;;
82630;SDS011;72301;52.376;9.738;2024-02-26T05:43:53;3.10;;;0.90;;
82630;SDS011;72301;52.376;9.738;2024-02-26T05:46:27;2.60;;;1.05;;
82630;SDS011;72301;52.376;9.738;2024-02-26T05:48:55;2.13;;;0.80;;
82630;SDS011;72301;52.376;9.738;2024-02-26T05:51:23;3.60;;;1.05;;
82630;SDS011;72301;52.376;9.738;2024-02-26T05:53:49;1.92;;;0.85;;
82630;SDS011;72301;52.376;9.738;2024-02-26T05:56:19;3.35;;;1.10;;
82630;SDS011;72301;52.376;9.738;2024-02-26T05:58:53;2.95;;;0.90;;
82630;SDS011;72301;52.376;9.738;2024-02-26T06:01:19;2.80;;;1.00;;
82630;SDS011;72301;52.376;9.738;2024-02-26T06:03:45;2.83;;;0.95;;
82630;SDS011;72301;52.376;9.738;2024-02-26T06:06:11;3.25;;;1.10;;
82630;SDS011;72301;52.376;9.738;2024-02-26T06:08:38;2.28;;;0.80;;
82630;SDS011;72301;52.376;9.738;2024-02-26T06:11:06;2.83;;;0.93;;
82630;SDS011;72301;52.376;9.738;2024-02-26T06:13:33;4.03;;;1.20;;
82630;SDS011;72301;52.376;9.738;2024-02-26T06:16:17;3.17;;;0.90;;
82630;SDS011;72301;52.376;9.738;2024-02-26T06:18:43;3.92;;;1.00;;
82630;SDS011;72301;52.376;9.738;2024-02-26T06:21:09;2.67;;;0.98;;
82630;SDS011;72301;52.376;9.738;2024-02-26T06:23:40;3.50;;;1.15;;
82630;SDS011;72301;52.376;9.738;2024-02-26T06:26:14;2.22;;;0.90;;
82630;SDS011;72301;52.376;9.738;2024-02-26T06:28:40;2.60;;;0.90;;
82630;SDS011;72301;52.376;9.738;2024-02-26T06:31:11;2.67;;;0.90;;
82630;SDS011;72301;52.376;9.738;2024-02-26T06:33:37;3.92;;;1.25;;
82630;SDS011;72301;52.376;9.738;2024-02-26T06:36:08;3.17;;;0.90;;
82630;SDS011;72301;52.376;9.738;2024-02-26T06:38:37;2.78;;;0.95;;
82630;SDS011;72301;52.376;9.738;2024-02-26T06:41:12;4.43;;;1.00;;
82630;SDS011;72301;52.376;9.738;2024-02-26T06:43:57;2.13;;;0.80;;
82630;SDS011;72301;52.376;9.738;2024-02-26T06:46:23;2.53;;;0.98;;
82630;SDS011;72301;52.376;9.738;2024-02-26T06:49:35;1.65;;;0.70;;
82630;SDS011;72301;52.376;9.738;2024-02-26T06:51:48;2.20;;;0.90;;
82630;SDS011;72301;52.376;9.738;2024-02-26T06:54:18;3.60;;;1.05;;
82630;SDS011;72301;52.376;9.738;2024-02-26T06:56:44;2.78;;;1.00;;
82630;SDS011;72301;52.376;9.738;2024-02-26T06:59:10;2.40;;;0.80;;
82630;SDS011;72301;52.376;9.738;2024-02-26T07:01:39;3.13;;;1.05;;
82630;SDS011;72301;52.376;9.738;2024-02-26T07:04:08;2.53;;;0.88;;
82630;SDS011;72301;52.376;9.738;2024-02-26T07:06:35;2.03;;;0.80;;
82630;SDS011;72301;52.376;9.738;2024-02-26T07:09:13;3.42;;;1.00;;
82630;SDS011;72301;52.376;9.738;2024-02-26T07:11:39;3.25;;;0.90;;
82630;SDS011;72301;52.376;9.738;2024-02-26T07:14:08;3.00;;;0.80;;
82630;SDS011;72301;52.376;9.738;2024-02-26T07:16:34;2.38;;;1.08;;
82630;SDS011;72301;52.376;9.738;2024-02-26T07:19:03;2.13;;;0.90;;
82630;SDS011;72301;52.376;9.738;2024-02-26T07:21:39;4.03;;;1.00;;
82630;SDS011;72301;52.376;9.738;2024-02-26T07:24:05;3.35;;;1.00;;
82630;SDS011;72301;52.376;9.738;2024-02-26T07:26:31;3.97;;;1.10;;
82630;SDS011;72301;52.376;9.738;2024-02-26T07:29:00;2.58;;;0.80;;
82630;SDS011;72301;52.376;9.738;2024-02-26T07:31:26;3.03;;;1.00;;
82630;SDS011;72301;52.376;9.738;2024-02-26T07:33:52;3.28;;;1.00;;
82630;SDS011;72301;52.376;9.738;2024-02-26T07:36:18;2.75;;;0.95;;
82630;SDS011;72301;52.376;9.738;2024-02-26T07:38:43;2.70;;;1.10;;
82630;SDS011;72301;52.376;9.738;2024-02-26T07:41:12;4.95;;;1.40;;
82630;SDS011;72301;52.376;9.738;2024-02-26T07:43:38;2.90;;;1.00;;
82630;SDS011;72301;52.376;9.738;2024-02-26T07:46:06;3.00;;;1.00;;
82630;SDS011;72301;52.376;9.738;2024-02-26T07:48:36;3.47;;;1.00;;
82630;SDS011;72301;52.376;9.738;2024-02-26T07:51:02;2.03;;;0.80;;
82630;SDS011;72301;52.376;9.738;2024-02-26T07:53:30;2.63;;;0.90;;
82630;SDS011;72301;52.376;9.738;2024-02-26T07:55:56;3.17;;;1.00;;
82630;SDS011;72301;52.376;9.738;2024-02-26T07:58:22;2.75;;;0.95;;
82630;SDS011;72301;52.376;9.738;2024-02-26T08:00:49;2.88;;;0.90;;
82630;SDS011;72301;52.376;9.738;2024-02-26T08:03:17;3.22;;;0.90;;
82630;SDS011;72301;52.376;9.738;2024-02-26T08:05:42;2.63;;;0.90;;
82630;SDS011;72301;52.376;9.738;2024-02-26T08:08:08;3.45;;;1.00;;
82630;SDS011;72301;52.376;9.738;2024-02-26T08:10:34;4.00;;;0.90;;
82630;SDS011;72301;52.376;9.738;2024-02-26T08:13:03;3.72;;;1.00;;
82630;SDS011;72301;52.376;9.738;2024-02-26T08:15:32;2.85;;;0.93;;
82630;SDS011;72301;52.376;9.738;2024-02-26T08:17:59;3.67;;;1.10;;
82630;SDS011;72301;52.376;9.738;2024-02-26T08:20:28;2.22;;;0.88;;
82630;SDS011;72301;52.376;9.738;2024-02-26T08:22:55;2.03;;;0.70;;
82630;SDS011;72301;52.376;9.738;2024-02-26T08:25:21;1.88;;;0.75;;
82630;SDS011;72301;52.376;9.738;2024-02-26T08:27:52;3.45;;;1.00;;
82630;SDS011;72301;52.376;9.738;2024-02-26T08:30:21;2.88;;;0.90;;
82630;SDS011;72301;52.376;9.738;2024-02-26T08:32:47;2.70;;;0.90;;
82630;SDS011;72301;52.376;9.738;2024-02-26T08:35:16;3.08;;;0.95;;
82630;SDS011;72301;52.376;9.738;2024-02-26T08:41:10;3.63;;;1.02;;
82630;SDS011;72301;52.376;9.738;2024-02-26T08:43:45;3.72;;;0.90;;
82630;SDS011;72301;52.376;9.738;2024-02-26T08:46:49;2.65;;;0.90;;
82630;SDS011;72301;52.376;9.738;2024-02-26T08:49:36;2.20;;;0.88;;
82630;SDS011;72301;52.376;9.738;2024-02-26T08:59:51;3.55;;;1.00;;
82630;SDS011;72301;52.376;9.738;2024-02-26T09:02:20;1.80;;;0.65;;
82630;SDS011;72301;52.376;9.738;2024-02-26T09:04:45;2.30;;;0.90;;
82630;SDS011;72301;52.376;9.738;2024-02-26T09:07:38;3.10;;;0.90;;
82630;SDS011;72301;52.376;9.738;2024-02-26T09:10:11;3.13;;;0.90;;
82630;SDS011;72301;52.376;9.738;2024-02-26T09:12:37;2.47;;;0.80;;
82630;SDS011;72301;52.376;9.738;2024-02-26T09:18:05;2.33;;;0.70;;
82630;SDS011;72301;52.376;9.738;2024-02-26T09:20:31;2.22;;;0.88;;
82630;SDS011;72301;52.376;9.738;2024-02-26T09:26:50;2.55;;;0.80;;
82630;SDS011;72301;52.376;9.738;2024-02-26T09:33:23;2.95;;;0.98;;
82630;SDS011;72301;52.376;9.738;2024-02-26T09:43:15;1.98;;;0.75;;
82630;SDS011;72301;52.376;9.738;2024-02-26T09:46:11;2.25;;;0.90;;
82630;SDS011;72301;52.376;9.738;2024-02-26T09:48:58;1.70;;;0.70;;
82630;SDS011;72301;52.376;9.738;2024-02-26T09:51:30;4.18;;;1.00;;
82630;SDS011;72301;52.376;9.738;2024-02-26T10:01:32;2.95;;;0.80;;
82630;SDS011;72301;52.376;9.738;2024-02-26T10:04:20;2.33;;;0.93;;
82630;SDS011;72301;52.376;9.738;2024-02-26T10:17:10;2.70;;;0.88;;
82630;SDS011;72301;52.376;9.738;2024-02-26T10:19:35;2.78;;;0.80;;
82630;SDS011;72301;52.376;9.738;2024-02-26T10:22:04;2.45;;;0.80;;
82630;SDS011;72301;52.376;9.738;2024-02-26T10:24:35;4.03;;;1.02;;
82630;SDS011;72301;52.376;9.738;2024-02-26T10:30:27;3.15;;;0.90;;
82630;SDS011;72301;52.376;9.738;2024-02-26T10:32:53;2.28;;;0.85;;
82630;SDS011;72301;52.376;9.738;2024-02-26T10:35:30;3.17;;;1.10;;
82630;SDS011;72301;52.376;9.738;2024-02-26T10:41:59;2.05;;;0.70;;
82630;SDS011;72301;52.376;9.738;2024-02-26T10:44:47;2.80;;;0.80;;
82630;SDS011;72301;52.376;9.738;2024-02-26T10:50:54;2.00;;;0.80;;
82630;SDS011;72301;52.376;9.738;2024-02-26T10:56:37;2.17;;;0.80;;
82630;SDS011;72301;52.376;9.738;2024-02-26T11:12:27;2.20;;;0.85;;
82630;SDS011;72301;52.376;9.738;2024-02-26T11:15:37;3.47;;;1.10;;
82630;SDS011;72301;52.376;9.738;2024-02-26T11:18:21;2.30;;;0.77;;
82630;SDS011;72301;52.376;9.738;2024-02-26T11:27:47;3.15;;;0.90;;
82630;SDS011;72301;52.376;9.738;2024-02-26T11:30:56;3.60;;;1.08;;
82630;SDS011;72301;52.376;9.738;2024-02-26T11:33:32;3.58;;;1.00;;
82630;SDS011;72301;52.376;9.738;2024-02-26T11:36:43;3.20;;;0.80;;
82630;SDS011;72301;52.376;9.738;2024-02-26T11:39:20;3.45;;;0.82;;
82630;SDS011;72301;52.376;9.738;2024-02-26T11:41:46;2.85;;;0.93;;
82630;SDS011;72301;52.376;9.738;2024-02-26T11:44:28;2.83;;;0.90;;
82630;SDS011;72301;52.376;9.738;2024-02-26T11:50:32;2.65;;;0.82;;
82630;SDS011;72301;52.376;9.738;2024-02-26T12:18:19;2.88;;;0.98;;
82630;SDS011;72301;52.376;9.738;2024-02-26T12:21:07;2.80;;;1.00;;
82630;SDS011;72301;52.376;9.738;2024-02-26T12:27:15;2.90;;;1.05;;
82630;SDS011;72301;52.376;9.738;2024-02-26T12:42:19;2.78;;;1.05;;
82630;SDS011;72301;52.376;9.738;2024-02-26T12:44:53;3.65;;;1.10;;
82630;SDS011;72301;52.376;9.738;2024-02-26T12:50:44;4.38;;;1.20;;
82630;SDS011;72301;52.376;9.738;2024-02-26T12:59:51;4.88;;;1.20;;
82630;SDS011;72301;52.376;9.738;2024-02-26T13:02:40;3.10;;;0.93;;
82630;SDS011;72301;52.376;9.738;2024-02-26T13:05:29;4.30;;;1.20;;
82630;SDS011;72301;52.376;9.738;2024-02-26T13:11:34;4.45;;;1.27;;
82630;SDS011;72301;52.376;9.738;2024-02-26T13:14:45;5.25;;;1.20;;
82630;SDS011;72301;52.376;9.738;2024-02-26T13:17:11;4.00;;;1.20;;
82630;SDS011;72301;52.376;9.738;2024-02-26T13:19:39;5.00;;;1.38;;
82630;SDS011;72301;52.376;9.738;2024-02-26T13:22:17;3.03;;;1.00;;
82630;SDS011;72301;52.376;9.738;2024-02-26T13:31:47;3.72;;;1.33;;
82630;SDS011;72301;52.376;9.738;2024-02-26T13:34:34;3.70;;;1.10;;
82630;SDS011;72301;52.376;9.738;2024-02-26T13:37:01;5.25;;;1.50;;
82630;SDS011;72301;52.376;9.738;2024-02-26T13:39:28;4.65;;;1.30;;
82630;SDS011;72301;52.376;9.738;2024-02-26T13:42:00;3.13;;;1.10;;
82630;SDS011;72301;52.376;9.738;2024-02-26T13:44:38;4.28;;;1.10;;
82630;SDS011;72301;52.376;9.738;2024-02-26T13:47:06;3.40;;;1.02;;
82630;SDS011;72301;52.376;9.738;2024-02-26T13:49:39;3.75;;;1.13;;
82630;SDS011;72301;52.376;9.738;2024-02-26T13:52:10;3.67;;;1.10;;
82630;SDS011;72301;52.376;9.738;2024-02-26T13:54:36;4.82;;;1.20;;
82630;SDS011;72301;52.376;9.738;2024-02-26T13:57:10;5.28;;;1.30;;
82630;SDS011;72301;52.376;9.738;2024-02-26T13:59:37;4.18;;;1.00;;
82630;SDS011;72301;52.376;9.738;2024-02-26T14:02:09;3.30;;;1.02;;
82630;SDS011;72301;52.376;9.738;2024-02-26T14:04:35;3.45;;;1.15;;
82630;SDS011;72301;52.376;9.738;2024-02-26T14:07:04;4.05;;;1.48;;
82630;SDS011;72301;52.376;9.738;2024-02-26T14:09:30;3.42;;;1.00;;
82630;SDS011;72301;52.376;9.738;2024-02-26T14:11:59;3.50;;;1.20;;
82630;SDS011;72301;52.376;9.738;2024-02-26T14:14:27;4.20;;;1.30;;
82630;SDS011;72301;52.376;9.738;2024-02-26T14:17:16;4.95;;;1.27;;
82630;SDS011;72301;52.376;9.738;2024-02-26T14:20:20;3.67;;;1.20;;
82630;SDS011;72301;52.376;9.738;2024-02-26T14:23:12;4.05;;;1.10;;
82630;SDS011;72301;52.376;9.738;2024-02-26T14:25:42;4.10;;;1.17;;
82630;SDS011;72301;52.376;9.738;2024-02-26T14:28:10;4.95;;;1.20;;
82630;SDS011;72301;52.376;9.738;2024-02-26T14:30:38;3.70;;;1.15;;
82630;SDS011;72301;52.376;9.738;2024-02-26T14:36:13;3.28;;;1.10;;
82630;SDS011;72301;52.376;9.738;2024-02-26T14:38:38;3.03;;;1.02;;
82630;SDS011;72301;52.376;9.738;2024-02-26T14:44:45;4.78;;;1.10;;
82630;SDS011;72301;52.376;9.738;2024-02-26T14:47:25;4.35;;;1.60;;
82630;SDS011;72301;52.376;9.738;2024-02-26T14:49:51;3.58;;;1.15;;
82630;SDS011;72301;52.376;9.738;2024-02-26T14:52:22;4.15;;;1.20;;
82630;SDS011;72301;52.376;9.738;2024-02-26T14:57:48;3.95;;;1.10;;
82630;SDS011;72301;52.376;9.738;2024-02-26T15:00:26;4.13;;;1.30;;
82630;SDS011;72301;52.376;9.738;2024-02-26T15:03:10;3.22;;;1.10;;
82630;SDS011;72301;52.376;9.738;2024-02-26T15:09:24;4.53;;;1.40;;
82630;SDS011;72301;52.376;9.738;2024-02-26T15:11:50;3.80;;;1.30;;
82630;SDS011;72301;52.376;9.738;2024-02-26T15:17:15;3.67;;;1.08;;
82630;SDS011;72301;52.376;9.738;2024-02-26T15:19:45;4.55;;;1.35;;
82630;SDS011;72301;52.376;9.738;2024-02-26T15:22:14;4.90;;;1.17;;
82630;SDS011;72301;52.376;9.738;2024-02-26T15:24:42;4.50;;;1.13;;
82630;SDS011;72301;52.376;9.738;2024-02-26T15:27:14;4.88;;;1.20;;
82630;SDS011;72301;52.376;9.738;2024-02-26T15:29:40;4.55;;;1.20;;
82630;SDS011;72301;52.376;9.738;2024-02-26T15:32:05;3.85;;;1.15;;
82630;SDS011;72301;52.376;9.738;2024-02-26T15:34:37;4.07;;;1.20;;
82630;SDS011;72301;52.376;9.738;2024-02-26T15:37:03;4.53;;;1.27;;
82630;SDS011;72301;52.376;9.738;2024-02-26T15:39:32;2.67;;;0.90;;
82630;SDS011;72301;52.376;9.738;2024-02-26T15:42:12;4.63;;;1.40;;
82630;SDS011;72301;52.376;9.738;2024-02-26T15:44:41;4.03;;;1.20;;
82630;SDS011;72301;52.376;9.738;2024-02-26T15:47:06;4.45;;;1.45;;
82630;SDS011;72301;52.376;9.738;2024-02-26T15:49:56;4.32;;;1.20;;
82630;SDS011;72301;52.376;9.738;2024-02-26T15:52:26;3.92;;;1.10;;
82630;SDS011;72301;52.376;9.738;2024-02-26T15:54:55;3.28;;;1.02;;
82630;SDS011;72301;52.376;9.738;2024-02-26T15:57:20;3.65;;;1.08;;
82630;SDS011;72301;52.376;9.738;2024-02-26T16:00:02;3.47;;;1.00;;
82630;SDS011;72301;52.376;9.738;2024-02-26T16:02:35;3.50;;;1.20;;
82630;SDS011;72301;52.376;9.738;2024-02-26T16:05:02;4.50;;;1.35;;
82630;SDS011;72301;52.376;9.738;2024-02-26T16:07:51;4.10;;;1.23;;
82630;SDS011;72301;52.376;9.738;2024-02-26T16:10:21;4.97;;;1.20;;
82630;SDS011;72301;52.376;9.738;2024-02-26T16:12:57;3.60;;;1.13;;
82630;SDS011;72301;52.376;9.738;2024-02-26T16:22:28;3.67;;;1.20;;
82630;SDS011;72301;52.376;9.738;2024-02-26T16:28:03;4.38;;;1.15;;
82630;SDS011;72301;52.376;9.738;2024-02-26T16:30:32;3.95;;;1.20;;
82630;SDS011;72301;52.376;9.738;2024-02-26T16:33:29;4.07;;;1.10;;
82630;SDS011;72301;52.376;9.738;2024-02-26T16:36:04;4.55;;;1.17;;
82630;SDS011;72301;52.376;9.738;2024-02-26T16:39:12;4.13;;;1.00;;
82630;SDS011;72301;52.376;9.738;2024-02-26T16:48:17;5.10;;;1.50;;
82630;SDS011;72301;52.376;9.738;2024-02-26T16:50:45;4.45;;;1.58;;
82630;SDS011;72301;52.376;9.738;2024-02-26T16:53:22;5.70;;;1.60;;
82630;SDS011;72301;52.376;9.738;2024-02-26T16:56:07;6.35;;;1.48;;
82630;SDS011;72301;52.376;9.738;2024-02-26T16:59:30;4.60;;;1.35;;
82630;SDS011;72301;52.376;9.738;2024-02-26T17:01:59;4.50;;;1.38;;
82630;SDS011;72301;52.376;9.738;2024-02-26T17:07:40;3.78;;;1.27;;
82630;SDS011;72301;52.376;9.738;2024-02-26T17:10:09;4.72;;;1.50;;
82630;SDS011;72301;52.376;9.738;2024-02-26T17:12:44;4.43;;;1.38;;
82630;SDS011;72301;52.376;9.738;2024-02-26T17:18:30;4.10;;;1.30;;
82630;SDS011;72301;52.376;9.738;2024-02-26T17:21:05;4.20;;;1.23;;
82630;SDS011;72301;52.376;9.738;2024-02-26T17:23:36;5.70;;;1.50;;
82630;SDS011;72301;52.376;9.738;2024-02-26T17:26:33;4.07;;;1.20;;
82630;SDS011;72301;52.376;9.738;2024-02-26T17:29:13;4.72;;;1.35;;
82630;SDS011;72301;52.376;9.738;2024-02-26T17:32:37;4.68;;;1.60;;
82630;SDS011;72301;52.376;9.738;2024-02-26T17:35:12;5.10;;;1.48;;
82630;SDS011;72301;52.376;9.738;2024-02-26T17:41:02;4.20;;;1.30;;
82630;SDS011;72301;52.376;9.738;2024-02-26T17:43:31;5.35;;;1.45;;
82630;SDS011;72301;52.376;9.738;2024-02-26T17:46:45;4.75;;;1.27;;
82630;SDS011;72301;52.376;9.738;2024-02-26T17:49:10;5.90;;;1.95;;
82630;SDS011;72301;52.376;9.738;2024-02-26T17:54:58;5.15;;;1.40;;
82630;SDS011;72301;52.376;9.738;2024-02-26T18:01:19;5.25;;;1.30;;
82630;SDS011;72301;52.376;9.738;2024-02-26T18:04:07;4.35;;;1.33;;
82630;SDS011;72301;52.376;9.738;2024-02-26T18:06:36;4.97;;;1.27;;
82630;SDS011;72301;52.376;9.738;2024-02-26T18:09:03;4.60;;;1.40;;
82630;SDS011;72301;52.376;9.738;2024-02-26T18:11:46;3.60;;;1.25;;
82630;SDS011;72301;52.376;9.738;2024-02-26T18:17:59;6.00;;;1.33;;
82630;SDS011;72301;52.376;9.738;2024-02-26T18:20:33;4.45;;;1.15;;
82630;SDS011;72301;52.376;9.738;2024-02-26T18:23:00;5.82;;;1.45;;
82630;SDS011;72301;52.376;9.738;2024-02-26T18:26:09;5.47;;;1.50;;
82630;SDS011;72301;52.376;9.738;2024-02-26T18:28:29;3.80;;;1.35;;
82630;SDS011;72301;52.376;9.738;2024-02-26T18:31:08;6.07;;;1.60;;
82630;SDS011;72301;52.376;9.738;2024-02-26T18:33:33;5.80;;;1.45;;
82630;SDS011;72301;52.376;9.738;2024-02-26T18:36:00;3.50;;;1.13;;
82630;SDS011;72301;52.376;9.738;2024-02-26T18:38:34;4.07;;;1.50;;